sensor_id;sensor_type;location;lat;lon;timestamp;pressure;altitude;pressure_sealevel;temperature;humidity
18145;BME280;14857;41.200;-8.326;2022-08-19T00:02:13;100081.47;;;18.09;100.00
18145;BME280;14857;41.200;-8.326;2022-08-19T00:05:54;100082.22;;;18.02;100.00
18145;BME280;14857;41.200;-8.326;2022-08-19T00:08:04;100067.31;;;17.75;100.00
18145;BME280;14857;41.200;-8.326;2022-08-19T00:10:33;100049.03;;;17.46;100.00
18145;BME280;14857;41.200;-8.326;2022-08-19T00:13:01;100125.22;;;18.04;100.00
18145;BME280;14857;41.200;-8.326;2022-08-19T00:15:31;100118.13;;;18.04;100.00
18145;BME280;14857;41.200;-8.326;2022-08-19T00:18:01;100109.22;;;18.05;100.00
18145;BME280;14857;41.200;-8.326;2022-08-19T00:20:36;100116.44;;;18.03;100.00
18145;BME280;14857;41.200;-8.326;2022-08-19T00:23:07;100083.16;;;17.75;100.00
18145;BME280;14857;41.200;-8.326;2022-08-19T00:25:36;100082.41;;;17.82;100.00
18145;BME280;14857;41.200;-8.326;2022-08-19T00:28:05;100062.94;;;17.66;100.00
18145;BME280;14857;41.200;-8.326;2022-08-19T00:30:34;100079.91;;;17.81;100.00
18145;BME280;14857;41.200;-8.326;2022-08-19T00:33:10;100014.44;;;17.40;100.00
18145;BME280;14857;41.200;-8.326;2022-08-19T00:35:38;100107.59;;;17.69;100.00
18145;BME280;14857;41.200;-8.326;2022-08-19T00:38:07;100113.50;;;17.63;100.00
18145;BME280;14857;41.200;-8.326;2022-08-19T00:40:36;100106.22;;;17.65;100.00
18145;BME280;14857;41.200;-8.326;2022-08-19T00:43:12;100077.13;;;17.29;100.00
18145;BME280;14857;41.200;-8.326;2022-08-19T00:45:41;100115.47;;;17.51;100.00
18145;BME280;14857;41.200;-8.326;2022-08-19T00:48:14;100063.75;;;17.13;100.00
18145;BME280;14857;41.200;-8.326;2022-08-19T00:51:01;100073.72;;;17.19;100.00
18145;BME280;14857;41.200;-8.326;2022-08-19T00:53:32;100129.84;;;17.49;100.00
18145;BME280;14857;41.200;-8.326;2022-08-19T00:56:02;100122.59;;;17.51;100.00
18145;BME280;14857;41.200;-8.326;2022-08-19T00:58:34;100107.06;;;17.48;100.00
18145;BME280;14857;41.200;-8.326;2022-08-19T01:01:04;100122.69;;;17.59;100.00
18145;BME280;14857;41.200;-8.326;2022-08-19T01:03:36;100088.44;;;17.40;100.00
18145;BME280;14857;41.200;-8.326;2022-08-19T01:06:25;100104.97;;;17.42;100.00
18145;BME280;14857;41.200;-8.326;2022-08-19T01:08:56;100076.06;;;17.22;100.00
18145;BME280;14857;41.200;-8.326;2022-08-19T01:11:26;100075.16;;;17.14;100.00
18145;BME280;14857;41.200;-8.326;2022-08-19T01:13:55;100090.94;;;17.23;100.00
18145;BME280;14857;41.200;-8.326;2022-08-19T01:16:27;100129.72;;;17.50;100.00
18145;BME280;14857;41.200;-8.326;2022-08-19T01:18:58;100093.28;;;17.26;100.00
18145;BME280;14857;41.200;-8.326;2022-08-19T01:21:31;100096.81;;;17.17;100.00
18145;BME280;14857;41.200;-8.326;2022-08-19T01:24:03;100146.72;;;17.48;100.00
18145;BME280;14857;41.200;-8.326;2022-08-19T01:26:39;100140.34;;;17.41;100.00
18145;BME280;14857;41.200;-8.326;2022-08-19T01:29:10;100141.72;;;17.45;100.00
18145;BME280;14857;41.200;-8.326;2022-08-19T01:31:40;100077.72;;;17.06;100.00
18145;BME280;14857;41.200;-8.326;2022-08-19T01:34:34;100131.72;;;17.39;100.00
18145;BME280;14857;41.200;-8.326;2022-08-19T01:37:09;100099.09;;;17.12;100.00
18145;BME280;14857;41.200;-8.326;2022-08-19T01:39:40;100128.25;;;17.20;100.00
18145;BME280;14857;41.200;-8.326;2022-08-19T01:42:09;100109.19;;;16.99;100.00
18145;BME280;14857;41.200;-8.326;2022-08-19T01:44:40;100086.50;;;16.79;100.00
18145;BME280;14857;41.200;-8.326;2022-08-19T01:47:09;100082.78;;;16.72;100.00
18145;BME280;14857;41.200;-8.326;2022-08-19T01:49:38;100125.16;;;16.98;100.00
18145;BME280;14857;41.200;-8.326;2022-08-19T01:52:06;100094.78;;;16.84;100.00
18145;BME280;14857;41.200;-8.326;2022-08-19T01:54:36;100097.72;;;16.81;100.00
18145;BME280;14857;41.200;-8.326;2022-08-19T01:57:09;100050.78;;;16.48;100.00
18145;BME280;14857;41.200;-8.326;2022-08-19T01:59:50;100115.28;;;17.00;100.00
18145;BME280;14857;41.200;-8.326;2022-08-19T02:02:19;100117.53;;;16.95;100.00
18145;BME280;14857;41.200;-8.326;2022-08-19T02:04:48;100058.94;;;16.64;100.00
18145;BME280;14857;41.200;-8.326;2022-08-19T02:07:19;100099.78;;;16.87;100.00
18145;BME280;14857;41.200;-8.326;2022-08-19T02:09:48;100119.34;;;16.94;100.00
18145;BME280;14857;41.200;-8.326;2022-08-19T02:12:18;100073.09;;;16.63;100.00
18145;BME280;14857;41.200;-8.326;2022-08-19T02:14:47;100076.28;;;16.66;100.00
18145;BME280;14857;41.200;-8.326;2022-08-19T02:17:16;100118.56;;;16.84;100.00
18145;BME280;14857;41.200;-8.326;2022-08-19T02:19:45;100109.00;;;16.83;100.00
18145;BME280;14857;41.200;-8.326;2022-08-19T02:22:16;100113.69;;;16.89;100.00
18145;BME280;14857;41.200;-8.326;2022-08-19T02:24:44;100066.69;;;16.65;100.00
18145;BME280;14857;41.200;-8.326;2022-08-19T02:27:13;100064.88;;;16.66;100.00
18145;BME280;14857;41.200;-8.326;2022-08-19T02:29:44;100067.97;;;16.52;100.00
18145;BME280;14857;41.200;-8.326;2022-08-19T02:32:13;100060.34;;;16.49;100.00
18145;BME280;14857;41.200;-8.326;2022-08-19T02:34:52;100113.44;;;16.83;100.00
18145;BME280;14857;41.200;-8.326;2022-08-19T02:37:20;100073.25;;;16.52;100.00
18145;BME280;14857;41.200;-8.326;2022-08-19T02:40:07;100113.88;;;16.78;100.00
18145;BME280;14857;41.200;-8.326;2022-08-19T02:42:38;100115.28;;;16.72;100.00
18145;BME280;14857;41.200;-8.326;2022-08-19T02:45:09;100039.50;;;16.18;100.00
18145;BME280;14857;41.200;-8.326;2022-08-19T02:47:38;100042.84;;;16.11;100.00
18145;BME280;14857;41.200;-8.326;2022-08-19T02:50:07;100122.31;;;16.45;100.00
18145;BME280;14857;41.200;-8.326;2022-08-19T02:52:36;100046.47;;;16.00;100.00
18145;BME280;14857;41.200;-8.326;2022-08-19T02:55:06;100086.41;;;16.24;100.00
18145;BME280;14857;41.200;-8.326;2022-08-19T02:57:35;100089.47;;;16.20;100.00
18145;BME280;14857;41.200;-8.326;2022-08-19T03:00:05;100118.31;;;16.41;100.00
18145;BME280;14857;41.200;-8.326;2022-08-19T03:02:36;100073.66;;;16.10;100.00
18145;BME280;14857;41.200;-8.326;2022-08-19T03:05:06;100115.53;;;16.33;100.00
18145;BME280;14857;41.200;-8.326;2022-08-19T03:07:37;100069.94;;;16.03;100.00
18145;BME280;14857;41.200;-8.326;2022-08-19T03:10:06;100052.34;;;15.85;100.00
18145;BME280;14857;41.200;-8.326;2022-08-19T03:12:36;100069.00;;;15.95;100.00
18145;BME280;14857;41.200;-8.326;2022-08-19T03:15:07;100081.19;;;16.05;100.00
18145;BME280;14857;41.200;-8.326;2022-08-19T03:17:37;100105.03;;;16.13;100.00
18145;BME280;14857;41.200;-8.326;2022-08-19T03:20:07;100033.81;;;15.67;100.00
18145;BME280;14857;41.200;-8.326;2022-08-19T03:22:40;100123.66;;;16.21;100.00
18145;BME280;14857;41.200;-8.326;2022-08-19T03:25:09;100131.97;;;16.17;100.00
18145;BME280;14857;41.200;-8.326;2022-08-19T03:27:39;100103.69;;;15.90;100.00
18145;BME280;14857;41.200;-8.326;2022-08-19T03:30:08;100124.47;;;16.12;100.00
18145;BME280;14857;41.200;-8.326;2022-08-19T03:32:39;100127.97;;;16.03;100.00
18145;BME280;14857;41.200;-8.326;2022-08-19T03:35:11;100130.34;;;15.97;100.00
18145;BME280;14857;41.200;-8.326;2022-08-19T03:37:40;100102.59;;;15.73;100.00
18145;BME280;14857;41.200;-8.326;2022-08-19T03:40:09;100124.94;;;15.89;100.00
18145;BME280;14857;41.200;-8.326;2022-08-19T03:42:42;100134.50;;;15.80;100.00
18145;BME280;14857;41.200;-8.326;2022-08-19T03:45:15;100136.34;;;15.80;100.00
18145;BME280;14857;41.200;-8.326;2022-08-19T03:47:45;100094.16;;;15.51;100.00
18145;BME280;14857;41.200;-8.326;2022-08-19T03:50:14;100140.91;;;15.68;100.00
18145;BME280;14857;41.200;-8.326;2022-08-19T03:52:48;100098.13;;;15.45;100.00
18145;BME280;14857;41.200;-8.326;2022-08-19T03:55:17;100088.97;;;15.40;100.00
18145;BME280;14857;41.200;-8.326;2022-08-19T03:57:46;100093.16;;;15.52;100.00
18145;BME280;14857;41.200;-8.326;2022-08-19T04:00:15;100150.75;;;15.85;100.00
18145;BME280;14857;41.200;-8.326;2022-08-19T04:05:48;100136.47;;;15.78;100.00
18145;BME280;14857;41.200;-8.326;2022-08-19T04:08:17;100109.50;;;15.46;100.00
18145;BME280;14857;41.200;-8.326;2022-08-19T04:10:47;100118.38;;;15.45;100.00
18145;BME280;14857;41.200;-8.326;2022-08-19T04:13:18;100107.16;;;15.43;100.00
18145;BME280;14857;41.200;-8.326;2022-08-19T04:15:46;100098.13;;;15.36;100.00
18145;BME280;14857;41.200;-8.326;2022-08-19T04:18:15;100155.06;;;15.67;100.00
18145;BME280;14857;41.200;-8.326;2022-08-19T04:20:46;100153.41;;;15.66;100.00
18145;BME280;14857;41.200;-8.326;2022-08-19T04:23:17;100101.75;;;15.35;100.00
18145;BME280;14857;41.200;-8.326;2022-08-19T04:25:47;100112.81;;;15.29;100.00
18145;BME280;14857;41.200;-8.326;2022-08-19T04:28:16;100128.63;;;15.29;100.00
18145;BME280;14857;41.200;-8.326;2022-08-19T04:30:47;100116.41;;;15.08;100.00
18145;BME280;14857;41.200;-8.326;2022-08-19T04:33:17;100156.63;;;15.20;100.00
18145;BME280;14857;41.200;-8.326;2022-08-19T04:35:54;100134.84;;;15.08;100.00
18145;BME280;14857;41.200;-8.326;2022-08-19T04:38:26;100143.31;;;15.21;100.00
18145;BME280;14857;41.200;-8.326;2022-08-19T04:40:55;100131.81;;;15.22;100.00
18145;BME280;14857;41.200;-8.326;2022-08-19T04:43:41;100130.56;;;15.27;100.00
18145;BME280;14857;41.200;-8.326;2022-08-19T04:46:15;100121.69;;;15.08;100.00
18145;BME280;14857;41.200;-8.326;2022-08-19T04:49:06;100154.97;;;15.29;100.00
18145;BME280;14857;41.200;-8.326;2022-08-19T04:51:41;100161.06;;;15.29;100.00
18145;BME280;14857;41.200;-8.326;2022-08-19T04:54:11;100110.66;;;14.84;100.00
18145;BME280;14857;41.200;-8.326;2022-08-19T04:56:45;100172.13;;;15.13;100.00
18145;BME280;14857;41.200;-8.326;2022-08-19T04:59:13;100181.72;;;15.14;100.00
18145;BME280;14857;41.200;-8.326;2022-08-19T05:01:43;100178.25;;;15.23;100.00
18145;BME280;14857;41.200;-8.326;2022-08-19T05:04:18;100135.31;;;14.93;100.00
18145;BME280;14857;41.200;-8.326;2022-08-19T05:06:48;100149.81;;;15.17;100.00
18145;BME280;14857;41.200;-8.326;2022-08-19T05:09:19;100146.34;;;15.07;100.00
18145;BME280;14857;41.200;-8.326;2022-08-19T05:11:48;100168.84;;;15.31;100.00
18145;BME280;14857;41.200;-8.326;2022-08-19T05:14:20;100128.00;;;14.96;100.00
18145;BME280;14857;41.200;-8.326;2022-08-19T05:16:49;100123.53;;;14.87;100.00
18145;BME280;14857;41.200;-8.326;2022-08-19T05:19:37;100114.88;;;14.66;100.00
18145;BME280;14857;41.200;-8.326;2022-08-19T05:22:23;100138.72;;;14.74;100.00
18145;BME280;14857;41.200;-8.326;2022-08-19T05:25:08;100180.16;;;15.02;100.00
18145;BME280;14857;41.200;-8.326;2022-08-19T05:27:39;100159.00;;;14.83;100.00
18145;BME280;14857;41.200;-8.326;2022-08-19T05:30:09;100174.97;;;14.91;100.00
18145;BME280;14857;41.200;-8.326;2022-08-19T05:32:38;100174.28;;;14.89;100.00
18145;BME280;14857;41.200;-8.326;2022-08-19T05:35:08;100142.63;;;14.70;100.00
18145;BME280;14857;41.200;-8.326;2022-08-19T05:37:37;100157.88;;;14.76;100.00
18145;BME280;14857;41.200;-8.326;2022-08-19T05:40:10;100207.72;;;14.98;100.00
18145;BME280;14857;41.200;-8.326;2022-08-19T05:42:38;100139.78;;;14.62;100.00
18145;BME280;14857;41.200;-8.326;2022-08-19T05:45:08;100183.97;;;14.89;100.00
18145;BME280;14857;41.200;-8.326;2022-08-19T05:47:39;100200.19;;;14.94;100.00
18145;BME280;14857;41.200;-8.326;2022-08-19T05:50:08;100207.13;;;14.95;100.00
18145;BME280;14857;41.200;-8.326;2022-08-19T05:52:38;100203.09;;;14.91;100.00
18145;BME280;14857;41.200;-8.326;2022-08-19T05:55:17;100195.94;;;14.72;100.00
18145;BME280;14857;41.200;-8.326;2022-08-19T05:57:50;100217.88;;;14.82;100.00
18145;BME280;14857;41.200;-8.326;2022-08-19T06:00:19;100187.06;;;14.63;100.00
18145;BME280;14857;41.200;-8.326;2022-08-19T06:02:50;100221.41;;;14.92;100.00
18145;BME280;14857;41.200;-8.326;2022-08-19T06:05:20;100179.47;;;14.70;100.00
18145;BME280;14857;41.200;-8.326;2022-08-19T06:07:48;100212.53;;;14.93;100.00
18145;BME280;14857;41.200;-8.326;2022-08-19T06:10:18;100166.13;;;14.62;100.00
18145;BME280;14857;41.200;-8.326;2022-08-19T06:12:47;100213.50;;;14.92;100.00
18145;BME280;14857;41.200;-8.326;2022-08-19T06:15:16;100184.63;;;14.81;100.00
18145;BME280;14857;41.200;-8.326;2022-08-19T06:17:45;100233.56;;;15.23;100.00
18145;BME280;14857;41.200;-8.326;2022-08-19T06:20:14;100176.25;;;15.06;100.00
18145;BME280;14857;41.200;-8.326;2022-08-19T06:23:04;100240.81;;;15.90;100.00
18145;BME280;14857;41.200;-8.326;2022-08-19T06:25:35;100189.88;;;16.84;100.00
18145;BME280;14857;41.200;-8.326;2022-08-19T06:28:04;100234.53;;;18.40;100.00
18145;BME280;14857;41.200;-8.326;2022-08-19T06:30:41;100189.28;;;19.44;100.00
18145;BME280;14857;41.200;-8.326;2022-08-19T06:33:10;100230.13;;;20.97;100.00
18145;BME280;14857;41.200;-8.326;2022-08-19T06:35:39;100237.13;;;22.06;100.00
18145;BME280;14857;41.200;-8.326;2022-08-19T06:38:08;100249.47;;;22.82;100.00
18145;BME280;14857;41.200;-8.326;2022-08-19T06:40:38;100202.75;;;23.66;95.14
18145;BME280;14857;41.200;-8.326;2022-08-19T06:43:07;100218.31;;;22.97;95.87
18145;BME280;14857;41.200;-8.326;2022-08-19T06:45:36;100200.66;;;24.74;88.85
18145;BME280;14857;41.200;-8.326;2022-08-19T06:48:05;100247.38;;;26.00;81.77
18145;BME280;14857;41.200;-8.326;2022-08-19T06:50:34;100207.59;;;25.91;79.64
18145;BME280;14857;41.200;-8.326;2022-08-19T06:53:07;100219.31;;;27.01;75.10
18145;BME280;14857;41.200;-8.326;2022-08-19T06:55:35;100253.22;;;28.11;69.75
18145;BME280;14857;41.200;-8.326;2022-08-19T06:58:06;100226.75;;;27.12;70.08
18145;BME280;14857;41.200;-8.326;2022-08-19T07:00:34;100260.56;;;27.84;69.25
18145;BME280;14857;41.200;-8.326;2022-08-19T07:03:03;100223.25;;;28.82;65.74
18145;BME280;14857;41.200;-8.326;2022-08-19T07:05:39;100251.00;;;30.44;61.46
18145;BME280;14857;41.200;-8.326;2022-08-19T07:08:12;100247.97;;;31.22;59.16
18145;BME280;14857;41.200;-8.326;2022-08-19T07:10:43;100244.63;;;33.11;53.83
18145;BME280;14857;41.200;-8.326;2022-08-19T07:13:13;100262.78;;;33.11;51.83
18145;BME280;14857;41.200;-8.326;2022-08-19T07:15:42;100261.13;;;33.10;50.59
18145;BME280;14857;41.200;-8.326;2022-08-19T07:18:13;100270.84;;;32.89;50.02
18145;BME280;14857;41.200;-8.326;2022-08-19T07:20:43;100217.91;;;33.03;48.83
18145;BME280;14857;41.200;-8.326;2022-08-19T07:23:12;100239.28;;;33.87;47.68
18145;BME280;14857;41.200;-8.326;2022-08-19T07:25:44;100241.00;;;34.56;46.41
18145;BME280;14857;41.200;-8.326;2022-08-19T07:28:20;100270.34;;;33.96;46.60
18145;BME280;14857;41.200;-8.326;2022-08-19T07:30:53;100247.69;;;34.75;45.18
18145;BME280;14857;41.200;-8.326;2022-08-19T07:33:22;100276.09;;;33.56;46.73
18145;BME280;14857;41.200;-8.326;2022-08-19T07:35:54;100259.78;;;35.00;44.84
18145;BME280;14857;41.200;-8.326;2022-08-19T07:38:22;100270.25;;;35.90;42.84
18145;BME280;14857;41.200;-8.326;2022-08-19T07:40:51;100288.00;;;37.93;40.70
18145;BME280;14857;41.200;-8.326;2022-08-19T07:43:22;100282.88;;;38.59;39.39
18145;BME280;14857;41.200;-8.326;2022-08-19T07:46:01;100284.88;;;38.10;39.24
18145;BME280;14857;41.200;-8.326;2022-08-19T07:48:30;100242.19;;;38.19;39.40
18145;BME280;14857;41.200;-8.326;2022-08-19T07:51:03;100285.34;;;38.56;38.39
18145;BME280;14857;41.200;-8.326;2022-08-19T07:53:36;100279.91;;;39.37;36.50
18145;BME280;14857;41.200;-8.326;2022-08-19T07:56:06;100257.38;;;39.82;36.17
18145;BME280;14857;41.200;-8.326;2022-08-19T07:58:39;100258.13;;;41.04;34.84
18145;BME280;14857;41.200;-8.326;2022-08-19T08:01:10;100242.78;;;42.46;32.64
18145;BME280;14857;41.200;-8.326;2022-08-19T08:03:40;100261.78;;;43.18;31.62
18145;BME280;14857;41.200;-8.326;2022-08-19T08:06:27;100278.50;;;43.78;30.32
18145;BME280;14857;41.200;-8.326;2022-08-19T08:09:18;100242.28;;;43.54;30.89
18145;BME280;14857;41.200;-8.326;2022-08-19T08:11:53;100259.28;;;44.50;29.92
18145;BME280;14857;41.200;-8.326;2022-08-19T08:14:35;100285.19;;;45.59;27.83
18145;BME280;14857;41.200;-8.326;2022-08-19T08:17:10;100215.78;;;45.93;27.96
18145;BME280;14857;41.200;-8.326;2022-08-19T08:19:40;100242.16;;;45.91;27.14
18145;BME280;14857;41.200;-8.326;2022-08-19T08:22:11;100272.56;;;46.32;27.11
18145;BME280;14857;41.200;-8.326;2022-08-19T08:25:03;100243.47;;;46.06;25.75
18145;BME280;14857;41.200;-8.326;2022-08-19T08:27:35;100274.63;;;46.56;25.74
18145;BME280;14857;41.200;-8.326;2022-08-19T08:30:09;100246.88;;;47.01;24.35
18145;BME280;14857;41.200;-8.326;2022-08-19T08:32:41;100278.28;;;46.48;24.79
18145;BME280;14857;41.200;-8.326;2022-08-19T08:35:13;100264.00;;;45.42;24.60
18145;BME280;14857;41.200;-8.326;2022-08-19T08:37:42;100244.34;;;45.06;24.02
18145;BME280;14857;41.200;-8.326;2022-08-19T08:40:17;100262.13;;;45.55;24.63
18145;BME280;14857;41.200;-8.326;2022-08-19T08:42:51;100267.25;;;46.72;23.14
18145;BME280;14857;41.200;-8.326;2022-08-19T08:45:36;100267.72;;;46.41;24.04
18145;BME280;14857;41.200;-8.326;2022-08-19T08:48:15;100229.22;;;45.83;24.09
18145;BME280;14857;41.200;-8.326;2022-08-19T08:50:52;100265.94;;;45.42;24.41
18145;BME280;14857;41.200;-8.326;2022-08-19T08:53:23;100271.06;;;46.35;24.29
18145;BME280;14857;41.200;-8.326;2022-08-19T08:55:59;100232.31;;;48.08;23.22
18145;BME280;14857;41.200;-8.326;2022-08-19T08:58:42;100226.78;;;47.68;23.20
18145;BME280;14857;41.200;-8.326;2022-08-19T09:01:14;100231.75;;;45.67;23.97
18145;BME280;14857;41.200;-8.326;2022-08-19T09:03:43;100239.91;;;46.38;23.66
18145;BME280;14857;41.200;-8.326;2022-08-19T09:06:20;100223.47;;;45.17;23.94
18145;BME280;14857;41.200;-8.326;2022-08-19T09:09:00;100216.84;;;44.00;25.55
18145;BME280;14857;41.200;-8.326;2022-08-19T09:11:55;100211.00;;;41.37;27.45
18145;BME280;14857;41.200;-8.326;2022-08-19T09:14:35;100209.31;;;41.64;27.81
18145;BME280;14857;41.200;-8.326;2022-08-19T09:17:20;100177.81;;;42.59;26.62
18145;BME280;14857;41.200;-8.326;2022-08-19T09:20:00;100247.00;;;44.05;26.00
18145;BME280;14857;41.200;-8.326;2022-08-19T09:22:35;100236.28;;;45.22;24.40
18145;BME280;14857;41.200;-8.326;2022-08-19T09:25:08;100239.06;;;46.46;23.32
18145;BME280;14857;41.200;-8.326;2022-08-19T09:27:39;100211.94;;;47.76;23.01
18145;BME280;14857;41.200;-8.326;2022-08-19T09:30:14;100204.53;;;49.68;21.43
18145;BME280;14857;41.200;-8.326;2022-08-19T09:33:00;100226.19;;;49.59;20.55
18145;BME280;14857;41.200;-8.326;2022-08-19T09:35:29;100255.81;;;43.24;24.17
18145;BME280;14857;41.200;-8.326;2022-08-19T09:38:16;100175.53;;;40.86;26.43
18145;BME280;14857;41.200;-8.326;2022-08-19T09:40:44;100253.22;;;41.01;26.85
18145;BME280;14857;41.200;-8.326;2022-08-19T09:43:13;100207.09;;;38.60;28.44
18145;BME280;14857;41.200;-8.326;2022-08-19T09:46:06;100239.09;;;39.12;28.06
18145;BME280;14857;41.200;-8.326;2022-08-19T09:48:40;100177.56;;;40.95;27.14
18145;BME280;14857;41.200;-8.326;2022-08-19T09:51:13;100203.38;;;40.80;26.60
18145;BME280;14857;41.200;-8.326;2022-08-19T09:53:51;100211.03;;;39.01;27.70
18145;BME280;14857;41.200;-8.326;2022-08-19T09:56:22;100199.03;;;38.97;28.74
18145;BME280;14857;41.200;-8.326;2022-08-19T09:59:01;100171.66;;;40.87;26.98
18145;BME280;14857;41.200;-8.326;2022-08-19T10:01:34;100197.25;;;43.02;25.24
18145;BME280;14857;41.200;-8.326;2022-08-19T10:04:09;100173.47;;;42.66;24.89
18145;BME280;14857;41.200;-8.326;2022-08-19T10:06:55;100203.56;;;45.95;22.95
18145;BME280;14857;41.200;-8.326;2022-08-19T10:09:26;100211.28;;;44.80;23.23
18145;BME280;14857;41.200;-8.326;2022-08-19T10:12:02;100180.66;;;43.41;24.77
18145;BME280;14857;41.200;-8.326;2022-08-19T10:14:32;100210.38;;;45.97;23.69
18145;BME280;14857;41.200;-8.326;2022-08-19T10:17:01;100227.44;;;47.13;22.43
18145;BME280;14857;41.200;-8.326;2022-08-19T10:19:49;100231.00;;;48.61;21.32
18145;BME280;14857;41.200;-8.326;2022-08-19T10:22:22;100186.81;;;45.29;22.05
18145;BME280;14857;41.200;-8.326;2022-08-19T10:24:52;100175.06;;;45.11;22.57
18145;BME280;14857;41.200;-8.326;2022-08-19T10:27:21;100143.34;;;40.19;25.89
18145;BME280;14857;41.200;-8.326;2022-08-19T10:29:54;100134.75;;;38.95;26.46
18145;BME280;14857;41.200;-8.326;2022-08-19T10:32:25;100226.19;;;38.36;27.47
18145;BME280;14857;41.200;-8.326;2022-08-19T10:35:05;100134.63;;;40.30;25.79
18145;BME280;14857;41.200;-8.326;2022-08-19T10:37:36;100174.06;;;40.48;26.32
18145;BME280;14857;41.200;-8.326;2022-08-19T10:40:26;100151.78;;;39.71;26.45
18145;BME280;14857;41.200;-8.326;2022-08-19T10:42:55;100139.19;;;41.17;25.31
18145;BME280;14857;41.200;-8.326;2022-08-19T10:45:29;100194.72;;;43.22;24.28
18145;BME280;14857;41.200;-8.326;2022-08-19T10:48:01;100153.22;;;44.98;23.16
18145;BME280;14857;41.200;-8.326;2022-08-19T10:50:39;100146.47;;;44.40;22.43
18145;BME280;14857;41.200;-8.326;2022-08-19T10:53:26;100157.22;;;40.68;24.71
18145;BME280;14857;41.200;-8.326;2022-08-19T10:55:54;100145.47;;;40.22;25.44
18145;BME280;14857;41.200;-8.326;2022-08-19T10:58:41;100169.06;;;40.23;26.04
18145;BME280;14857;41.200;-8.326;2022-08-19T11:01:11;100133.91;;;39.55;25.91
18145;BME280;14857;41.200;-8.326;2022-08-19T11:03:40;100187.91;;;39.92;26.10
18145;BME280;14857;41.200;-8.326;2022-08-19T11:06:19;100118.78;;;40.41;25.33
18145;BME280;14857;41.200;-8.326;2022-08-19T11:08:48;100122.22;;;40.19;25.27
18145;BME280;14857;41.200;-8.326;2022-08-19T11:11:17;100096.06;;;39.25;25.77
18145;BME280;14857;41.200;-8.326;2022-08-19T11:13:46;100172.19;;;38.75;27.09
18145;BME280;14857;41.200;-8.326;2022-08-19T11:16:18;100094.34;;;39.48;25.97
18145;BME280;14857;41.200;-8.326;2022-08-19T11:18:50;100114.09;;;40.28;25.39
18145;BME280;14857;41.200;-8.326;2022-08-19T11:21:22;100095.81;;;39.77;25.46
18145;BME280;14857;41.200;-8.326;2022-08-19T11:23:54;100136.19;;;41.05;25.11
18145;BME280;14857;41.200;-8.326;2022-08-19T11:26:24;100113.81;;;39.46;25.43
18145;BME280;14857;41.200;-8.326;2022-08-19T11:28:53;100134.78;;;41.43;23.83
18145;BME280;14857;41.200;-8.326;2022-08-19T11:31:25;100090.94;;;39.74;25.16
18145;BME280;14857;41.200;-8.326;2022-08-19T11:33:56;100115.53;;;39.42;25.00
18145;BME280;14857;41.200;-8.326;2022-08-19T11:36:29;100113.94;;;40.06;25.24
18145;BME280;14857;41.200;-8.326;2022-08-19T11:38:58;100078.44;;;38.70;25.42
18145;BME280;14857;41.200;-8.326;2022-08-19T11:41:27;100129.47;;;39.22;25.58
18145;BME280;14857;41.200;-8.326;2022-08-19T11:43:56;100079.88;;;40.25;24.04
18145;BME280;14857;41.200;-8.326;2022-08-19T11:46:26;100093.94;;;41.72;23.52
18145;BME280;14857;41.200;-8.326;2022-08-19T11:48:56;100154.03;;;41.29;24.01
18145;BME280;14857;41.200;-8.326;2022-08-19T11:51:33;100126.28;;;41.75;23.23
18145;BME280;14857;41.200;-8.326;2022-08-19T11:54:32;100116.94;;;41.05;24.33
18145;BME280;14857;41.200;-8.326;2022-08-19T11:57:02;100123.25;;;40.05;24.36
18145;BME280;14857;41.200;-8.326;2022-08-19T11:59:31;100058.88;;;39.56;24.38
18145;BME280;14857;41.200;-8.326;2022-08-19T12:02:00;100100.09;;;39.83;24.48
18145;BME280;14857;41.200;-8.326;2022-08-19T12:04:29;100136.78;;;38.08;25.73
18145;BME280;14857;41.200;-8.326;2022-08-19T12:06:59;100048.59;;;35.91;27.59
18145;BME280;14857;41.200;-8.326;2022-08-19T12:09:45;100095.16;;;35.54;28.11
18145;BME280;14857;41.200;-8.326;2022-08-19T12:12:43;100104.63;;;35.21;28.39
18145;BME280;14857;41.200;-8.326;2022-08-19T12:15:35;100074.66;;;34.54;29.36
18145;BME280;14857;41.200;-8.326;2022-08-19T12:18:04;100089.53;;;34.89;28.82
18145;BME280;14857;41.200;-8.326;2022-08-19T12:20:35;100121.00;;;34.74;30.00
18145;BME280;14857;41.200;-8.326;2022-08-19T12:23:06;100040.88;;;34.30;29.84
18145;BME280;14857;41.200;-8.326;2022-08-19T12:25:36;100116.28;;;35.12;29.62
18145;BME280;14857;41.200;-8.326;2022-08-19T12:28:06;100026.16;;;34.93;29.96
18145;BME280;14857;41.200;-8.326;2022-08-19T12:30:37;100052.97;;;34.59;30.12
18145;BME280;14857;41.200;-8.326;2022-08-19T12:33:06;100051.81;;;35.12;29.57
18145;BME280;14857;41.200;-8.326;2022-08-19T12:35:35;100051.00;;;35.17;29.54
18145;BME280;14857;41.200;-8.326;2022-08-19T12:38:05;100094.03;;;35.40;29.22
18145;BME280;14857;41.200;-8.326;2022-08-19T12:40:33;100011.09;;;34.55;29.70
18145;BME280;14857;41.200;-8.326;2022-08-19T12:43:02;100091.59;;;35.44;30.03
18145;BME280;14857;41.200;-8.326;2022-08-19T12:45:34;100012.28;;;34.85;29.39
18145;BME280;14857;41.200;-8.326;2022-08-19T12:48:03;100086.97;;;35.44;29.06
18145;BME280;14857;41.200;-8.326;2022-08-19T12:50:53;100082.03;;;35.21;29.23
18145;BME280;14857;41.200;-8.326;2022-08-19T12:53:23;100038.97;;;34.98;29.09
18145;BME280;14857;41.200;-8.326;2022-08-19T12:56:17;100089.09;;;35.12;29.99
18145;BME280;14857;41.200;-8.326;2022-08-19T12:58:50;100046.66;;;35.26;29.79
18145;BME280;14857;41.200;-8.326;2022-08-19T13:01:20;100070.66;;;35.59;29.29
18145;BME280;14857;41.200;-8.326;2022-08-19T13:03:50;100079.91;;;35.68;29.17
18145;BME280;14857;41.200;-8.326;2022-08-19T13:06:21;100076.34;;;35.53;29.40
18145;BME280;14857;41.200;-8.326;2022-08-19T13:09:19;100035.28;;;35.59;29.32